Gilman, Vermont
Current Conditions -  °F | °C
As of 9:52 AM on Sunday 23 Nov 2014 (Local Time) from KHIE Reporting Station
Overcast Overcast  
Wind Chill: 37°   Ceiling: 1900
Heat Index: 41°   Visibility: 10mi
Dew Point: 37°   Wind: 6mph
Humidity: 86%   Direction: 270°W
Pressure: 30.05"   Gusts: NA
Location:  44.41°N, 71.72°W
Report Text: KHIE 231452Z AUTO 27005KT 10SM OVC019 05/03 A3005 RMK AO2 SLP186 60000 T00500028 53015
Loading
Personal Weather Stations






























Interactive Weather Map New forecast layout! Learn more

10-Day Weather Forecast

Advertisements
Track Severe Weather on mobile